Time,TemperatureF,DewpointF,PressureIn,WindDirection,WindDirectionDegrees,WindSpeedMPH,WindSpeedGustMPH,Humidity,HourlyPrecipIn,Conditions,Clouds,dailyrainin,SoftwareType,DateUTC
2014-01-03 00:01:00,9.0,1.8,29.52,NW,319,0.0,2.9,72,0.00,,,0.00,meteobridge,2014-01-03 05:01:00,
2014-01-03 00:02:00,9.0,1.8,29.52,WSW,243,0.0,2.9,72,0.00,,,0.00,meteobridge,2014-01-03 05:02:00,
2014-01-03 00:07:00,9.1,1.9,29.51,WNW,301,0.9,0.9,72,0.00,,,0.00,meteobridge,2014-01-03 05:07:00,
2014-01-03 00:12:00,9.0,1.8,29.51,North,352,2.9,2.9,72,0.00,,,0.00,meteobridge,2014-01-03 05:12:00,
2014-01-03 00:17:00,9.0,1.8,29.52,West,278,0.0,2.0,72,0.00,,,0.00,meteobridge,2014-01-03 05:17:00,
2014-01-03 00:22:00,9.0,1.8,29.52,West,274,0.0,2.0,72,0.00,,,0.00,meteobridge,2014-01-03 05:22:00,
2014-01-03 00:27:00,8.8,1.6,29.52,WNW,284,0.0,0.9,72,0.00,,,0.00,meteobridge,2014-01-03 05:27:00,
2014-01-03 00:32:00,8.8,1.6,29.52,West,274,0.0,0.9,72,0.00,,,0.00,meteobridge,2014-01-03 05:32:00,
2014-01-03 00:37:00,8.6,1.8,29.52,West,276,0.0,0.9,73,0.00,,,0.00,meteobridge,2014-01-03 05:37:00,
2014-01-03 00:43:00,8.4,1.6,29.52,WNW,302,0.0,0.0,73,0.00,,,0.00,meteobridge,2014-01-03 05:43:00,
2014-01-03 00:48:00,8.2,1.4,29.52,West,262,0.0,0.0,73,0.00,,,0.00,meteobridge,2014-01-03 05:48:00,
2014-01-03 00:53:00,8.2,1.4,29.52,West,273,0.0,0.9,73,0.00,,,0.00,meteobridge,2014-01-03 05:53:00,
2014-01-03 00:58:00,8.2,1.4,29.52,West,263,0.0,0.9,73,0.00,,,0.00,meteobridge,2014-01-03 05:58:00,
2014-01-03 01:03:00,8.1,1.2,29.52,West,263,0.0,0.0,73,0.00,,,0.00,meteobridge,2014-01-03 06:03:00,
2014-01-03 01:09:00,7.7,1.2,29.53,WSW,242,0.0,0.0,74,0.00,,,0.00,meteobridge,2014-01-03 06:09:00,
2014-01-03 01:14:00,7.3,1.0,29.53,SW,234,0.0,0.9,75,0.00,,,0.00,meteobridge,2014-01-03 06:14:00,
2014-01-03 01:19:00,6.8,0.9,29.54,SW,225,0.0,0.0,76,0.00,,,0.00,meteobridge,2014-01-03 06:19:00,
2014-01-03 01:24:00,6.3,0.7,29.54,WSW,246,0.0,0.0,77,0.00,,,0.00,meteobridge,2014-01-03 06:24:00,
2014-01-03 01:29:00,5.7,0.1,29.54,WSW,245,0.0,0.0,77,0.00,,,0.00,meteobridge,2014-01-03 06:29:00,
2014-01-03 01:34:00,5.2,-0.2,29.54,WSW,245,0.0,0.0,78,0.00,,,0.00,meteobridge,2014-01-03 06:34:00,
2014-01-03 01:39:00,4.8,0.0,29.54,WSW,247,0.0,0.0,80,0.00,,,0.00,meteobridge,2014-01-03 06:39:00,
2014-01-03 01:44:00,5.0,0.5,29.54,WSW,252,0.0,0.9,81,0.00,,,0.00,meteobridge,2014-01-03 06:44:00,
2014-01-03 01:49:00,4.8,0.3,29.54,WSW,252,0.0,0.0,81,0.00,,,0.00,meteobridge,2014-01-03 06:49:00,
2014-01-03 01:55:00,4.6,0.1,29.55,WSW,252,0.0,0.0,81,0.00,,,0.00,meteobridge,2014-01-03 06:55:00,
2014-01-03 02:00:00,4.6,0.3,29.54,West,266,0.0,0.9,82,0.00,,,0.00,meteobridge,2014-01-03 07:00:00,
2014-01-03 02:05:00,5.2,0.9,29.55,West,281,0.0,0.9,82,0.00,,,0.00,meteobridge,2014-01-03 07:05:00,
2014-01-03 02:10:00,5.5,1.0,29.55,NW,310,0.0,0.9,81,0.00,,,0.00,meteobridge,2014-01-03 07:10:00,
2014-01-03 02:15:00,5.9,1.0,29.55,West,276,0.0,0.9,80,0.00,,,0.00,meteobridge,2014-01-03 07:15:00,
2014-01-03 02:20:00,5.9,1.0,29.55,West,276,0.0,0.0,80,0.00,,,0.00,meteobridge,2014-01-03 07:20:00,
2014-01-03 02:25:00,5.9,1.0,29.55,WNW,298,0.0,0.0,80,0.00,,,0.00,meteobridge,2014-01-03 07:25:00,
2014-01-03 02:31:00,5.5,0.5,29.56,WNW,297,0.0,0.0,79,0.00,,,0.00,meteobridge,2014-01-03 07:31:00,
2014-01-03 02:36:00,5.0,0.0,29.56,WNW,297,0.0,0.0,79,0.00,,,0.00,meteobridge,2014-01-03 07:36:00,
2014-01-03 02:41:00,4.3,-0.6,29.56,WNW,297,0.0,0.0,80,0.00,,,0.00,meteobridge,2014-01-03 07:41:00,
2014-01-03 02:46:00,3.7,-1.1,29.57,WNW,297,0.0,0.0,80,0.00,,,0.00,meteobridge,2014-01-03 07:46:00,
2014-01-03 02:51:00,3.2,-1.1,29.57,WNW,297,0.0,0.0,82,0.00,,,0.00,meteobridge,2014-01-03 07:51:00,
2014-01-03 02:56:00,2.7,-1.7,29.57,WNW,297,0.0,0.0,82,0.00,,,0.00,meteobridge,2014-01-03 07:56:00,
2014-01-03 03:01:00,2.1,-1.8,29.57,WNW,297,0.0,0.0,83,0.00,,,0.00,meteobridge,2014-01-03 08:01:00,
2014-01-03 03:06:00,1.8,-2.0,29.57,WNW,298,0.0,0.0,84,0.00,,,0.00,meteobridge,2014-01-03 08:06:00,
2014-01-03 03:11:00,1.4,-2.4,29.57,WNW,297,0.0,0.0,84,0.00,,,0.00,meteobridge,2014-01-03 08:11:00,
2014-01-03 03:16:00,1.2,-2.2,29.57,WNW,298,0.0,0.0,85,0.00,,,0.00,meteobridge,2014-01-03 08:16:00,
2014-01-03 03:21:00,0.7,-2.7,29.57,WNW,298,0.0,0.0,85,0.00,,,0.00,meteobridge,2014-01-03 08:21:00,
2014-01-03 03:26:00,0.3,-3.1,29.57,WNW,298,0.0,0.0,85,0.00,,,0.00,meteobridge,2014-01-03 08:26:00,
2014-01-03 03:32:00,0.1,-3.1,29.57,WNW,298,0.0,0.0,86,0.00,,,0.00,meteobridge,2014-01-03 08:32:00,
2014-01-03 03:37:00,0.0,-3.3,29.57,WNW,297,0.0,0.0,86,0.00,,,0.00,meteobridge,2014-01-03 08:37:00,
2014-01-03 03:42:00,-0.2,-3.1,29.57,WNW,298,0.0,0.0,87,0.00,,,0.00,meteobridge,2014-01-03 08:42:00,
2014-01-03 03:47:00,-0.2,-2.9,29.58,WNW,298,0.0,0.0,88,0.00,,,0.00,meteobridge,2014-01-03 08:47:00,
2014-01-03 03:52:00,-0.2,-2.9,29.58,WNW,294,0.0,0.0,88,0.00,,,0.00,meteobridge,2014-01-03 08:52:00,
2014-01-03 03:58:00,-0.4,-3.1,29.59,West,266,0.0,0.0,88,0.00,,,0.00,meteobridge,2014-01-03 08:58:00,
2014-01-03 04:03:00,-0.8,-3.6,29.59,West,266,0.0,0.0,87,0.00,,,0.00,meteobridge,2014-01-03 09:03:00,
2014-01-03 04:08:00,-0.9,-3.6,29.59,West,266,0.0,0.0,88,0.00,,,0.00,meteobridge,2014-01-03 09:08:00,
2014-01-03 04:13:00,-1.1,-3.8,29.59,West,266,0.0,0.0,88,0.00,,,0.00,meteobridge,2014-01-03 09:13:00,
2014-01-03 04:19:00,-1.3,-4.0,29.59,West,266,0.0,0.0,88,0.00,,,0.00,meteobridge,2014-01-03 09:19:00,
2014-01-03 04:24:00,-1.7,-4.4,29.59,West,266,0.0,0.0,88,0.00,,,0.00,meteobridge,2014-01-03 09:24:00,
2014-01-03 04:30:00,-2.0,-4.9,29.59,West,266,0.0,0.0,87,0.00,,,0.00,meteobridge,2014-01-03 09:30:00,
2014-01-03 04:35:00,-2.2,-5.1,29.59,West,266,0.0,0.0,87,0.00,,,0.00,meteobridge,2014-01-03 09:35:00,
2014-01-03 04:41:00,-2.4,-5.3,29.59,West,266,0.0,0.0,87,0.00,,,0.00,meteobridge,2014-01-03 09:41:00,
2014-01-03 04:46:00,-2.4,-5.3,29.59,West,266,0.0,0.0,87,0.00,,,0.00,meteobridge,2014-01-03 09:46:00,
2014-01-03 04:51:00,-2.4,-5.3,29.59,West,266,0.0,0.0,87,0.00,,,0.00,meteobridge,2014-01-03 09:51:00,
2014-01-03 04:57:00,-2.6,-5.4,29.60,West,266,0.0,0.0,87,0.00,,,0.00,meteobridge,2014-01-03 09:57:00,
2014-01-03 05:02:00,-2.7,-5.6,29.59,West,266,0.0,0.0,87,0.00,,,0.00,meteobridge,2014-01-03 10:02:00,
2014-01-03 05:07:00,-2.9,-5.8,29.59,West,266,0.0,0.0,87,0.00,,,0.00,meteobridge,2014-01-03 10:07:00,
2014-01-03 05:12:00,-2.9,-5.8,29.59,West,266,0.0,0.0,87,0.00,,,0.00,meteobridge,2014-01-03 10:12:00,
2014-01-03 05:18:00,-3.3,-6.2,29.60,West,266,0.0,0.0,87,0.00,,,0.00,meteobridge,2014-01-03 10:18:00,
2014-01-03 05:23:00,-3.3,-6.2,29.60,West,266,0.0,0.0,87,0.00,,,0.00,meteobridge,2014-01-03 10:23:00,
2014-01-03 05:28:00,-3.5,-6.3,29.60,West,266,0.0,0.0,87,0.00,,,0.00,meteobridge,2014-01-03 10:28:00,
2014-01-03 05:33:00,-3.5,-6.3,29.60,West,266,0.0,0.0,87,0.00,,,0.00,meteobridge,2014-01-03 10:33:00,
2014-01-03 05:39:00,-3.5,-6.3,29.60,West,266,0.0,0.0,87,0.00,,,0.00,meteobridge,2014-01-03 10:39:00,
2014-01-03 05:44:00,-3.8,-6.7,29.60,West,266,0.0,0.0,87,0.00,,,0.00,meteobridge,2014-01-03 10:44:00,
2014-01-03 05:50:00,-4.2,-7.2,29.60,West,266,0.0,0.0,86,0.00,,,0.00,meteobridge,2014-01-03 10:50:00,
2014-01-03 05:55:00,-4.5,-7.6,29.60,West,266,0.0,0.0,86,0.00,,,0.00,meteobridge,2014-01-03 10:55:00,
2014-01-03 06:00:00,-4.7,-7.8,29.60,West,266,0.0,0.0,86,0.00,,,0.00,meteobridge,2014-01-03 11:00:00,
2014-01-03 06:06:00,-4.5,-7.4,29.60,West,266,0.0,0.0,87,0.00,,,0.00,meteobridge,2014-01-03 11:06:00,
2014-01-03 06:11:00,-4.4,-7.2,29.60,West,266,0.0,0.0,87,0.00,,,0.00,meteobridge,2014-01-03 11:11:00,
2014-01-03 06:16:00,-4.2,-6.9,29.60,West,266,0.0,0.0,88,0.00,,,0.00,meteobridge,2014-01-03 11:16:00,
2014-01-03 06:21:00,-4.0,-6.7,29.60,West,266,0.0,0.0,88,0.00,,,0.00,meteobridge,2014-01-03 11:21:00,
2014-01-03 06:26:00,-4.0,-6.9,29.60,West,266,0.0,0.0,87,0.00,,,0.00,meteobridge,2014-01-03 11:26:00,
2014-01-03 06:32:00,-4.0,-6.9,29.61,West,266,0.0,0.0,87,0.00,,,0.00,meteobridge,2014-01-03 11:32:00,
2014-01-03 06:37:00,-4.4,-7.2,29.61,West,266,0.0,0.0,87,0.00,,,0.00,meteobridge,2014-01-03 11:37:00,
2014-01-03 06:42:00,-4.4,-7.2,29.61,West,266,0.0,0.0,87,0.00,,,0.00,meteobridge,2014-01-03 11:42:00,
2014-01-03 06:48:00,-4.5,-7.4,29.61,West,266,0.0,0.0,87,0.00,,,0.00,meteobridge,2014-01-03 11:48:00,
2014-01-03 06:53:00,-4.5,-7.6,29.61,West,266,0.0,0.0,86,0.00,,,0.00,meteobridge,2014-01-03 11:53:00,
2014-01-03 06:58:00,-5.1,-8.1,29.61,West,266,0.0,0.0,86,0.00,,,0.00,meteobridge,2014-01-03 11:58:00,
2014-01-03 07:03:00,-5.3,-8.3,29.62,West,266,0.0,0.0,86,0.00,,,0.00,meteobridge,2014-01-03 12:03:00,
2014-01-03 07:09:00,-5.4,-8.5,29.62,West,266,0.0,0.0,86,0.00,,,0.00,meteobridge,2014-01-03 12:09:00,
2014-01-03 07:14:00,-5.4,-8.3,29.62,West,266,0.0,0.0,87,0.00,,,0.00,meteobridge,2014-01-03 12:14:00,
2014-01-03 07:19:00,-5.4,-8.3,29.62,West,266,0.0,0.0,87,0.00,,,0.00,meteobridge,2014-01-03 12:19:00,
2014-01-03 07:24:00,-5.3,-8.1,29.62,West,266,0.0,0.0,87,0.00,,,0.00,meteobridge,2014-01-03 12:24:00,
2014-01-03 07:30:00,-5.3,-8.1,29.62,West,266,0.0,0.0,87,0.00,,,0.00,meteobridge,2014-01-03 12:30:00,
2014-01-03 07:35:00,-5.3,-8.3,29.62,West,266,0.0,0.0,86,0.00,,,0.00,meteobridge,2014-01-03 12:35:00,
2014-01-03 07:41:00,-5.3,-8.3,29.63,West,266,0.0,0.0,86,0.00,,,0.00,meteobridge,2014-01-03 12:41:00,
2014-01-03 07:46:00,-5.4,-8.5,29.63,West,266,0.0,0.0,86,0.00,,,0.00,meteobridge,2014-01-03 12:46:00,
2014-01-03 07:52:00,-5.6,-8.7,29.63,West,266,0.0,0.0,86,0.00,,,0.00,meteobridge,2014-01-03 12:52:00,
2014-01-03 07:57:00,-5.4,-8.3,29.63,West,266,0.0,0.0,87,0.00,,,0.00,meteobridge,2014-01-03 12:57:00,
2014-01-03 08:03:00,-5.4,-8.3,29.63,West,266,0.0,0.0,87,0.00,,,0.00,meteobridge,2014-01-03 13:03:00,
2014-01-03 08:08:00,-5.3,-8.1,29.63,West,266,0.0,0.0,87,0.00,,,0.00,meteobridge,2014-01-03 13:08:00,
2014-01-03 08:14:00,-5.3,-8.1,29.64,West,266,0.0,0.0,87,0.00,,,0.00,meteobridge,2014-01-03 13:14:00,
2014-01-03 08:19:00,-5.3,-8.1,29.64,West,266,0.0,0.0,87,0.00,,,0.00,meteobridge,2014-01-03 13:19:00,
2014-01-03 08:24:00,-5.3,-8.1,29.64,West,266,0.0,0.0,87,0.00,,,0.00,meteobridge,2014-01-03 13:24:00,
2014-01-03 08:29:00,-5.1,-8.1,29.64,West,266,0.0,0.0,86,0.00,,,0.00,meteobridge,2014-01-03 13:29:00,
2014-01-03 08:35:00,-5.3,-8.3,29.63,West,266,0.0,0.0,86,0.00,,,0.00,meteobridge,2014-01-03 13:35:00,
2014-01-03 08:40:00,-5.1,-8.1,29.64,West,266,0.0,0.0,86,0.00,,,0.00,meteobridge,2014-01-03 13:40:00,
2014-01-03 08:45:00,-4.7,-7.6,29.64,West,266,0.0,0.0,87,0.00,,,0.00,meteobridge,2014-01-03 13:45:00,
2014-01-03 08:51:00,-4.4,-7.2,29.64,West,266,0.0,0.0,87,0.00,,,0.00,meteobridge,2014-01-03 13:51:00,
2014-01-03 08:56:00,-3.6,-6.5,29.64,West,266,0.0,0.0,87,0.00,,,0.00,meteobridge,2014-01-03 13:56:00,
2014-01-03 09:01:00,-3.3,-6.2,29.65,West,266,0.0,0.0,87,0.00,,,0.00,meteobridge,2014-01-03 14:01:00,
2014-01-03 09:06:00,-2.4,-5.1,29.65,West,266,0.0,0.0,88,0.00,,,0.00,meteobridge,2014-01-03 14:06:00,
2014-01-03 09:11:00,-1.8,-4.5,29.65,West,266,0.0,0.0,88,0.00,,,0.00,meteobridge,2014-01-03 14:11:00,
2014-01-03 09:16:00,-1.3,-4.0,29.65,West,266,0.0,0.0,88,0.00,,,0.00,meteobridge,2014-01-03 14:16:00,
2014-01-03 09:21:00,-0.2,-2.7,29.65,West,266,0.0,0.0,89,0.00,,,0.00,meteobridge,2014-01-03 14:21:00,
2014-01-03 09:27:00,1.2,-0.9,29.65,West,266,0.0,0.0,90,0.00,,,0.00,meteobridge,2014-01-03 14:27:00,
2014-01-03 09:32:00,2.1,-0.2,29.65,West,266,0.0,0.0,90,0.00,,,0.00,meteobridge,2014-01-03 14:32:00,
2014-01-03 09:37:00,2.5,0.0,29.66,West,266,0.0,0.0,89,0.00,,,0.00,meteobridge,2014-01-03 14:37:00,
2014-01-03 09:43:00,3.0,0.5,29.66,West,276,0.0,0.9,89,0.00,,,0.00,meteobridge,2014-01-03 14:43:00,
2014-01-03 09:48:00,3.6,1.0,29.66,SW,222,0.0,0.0,89,0.00,,,0.00,meteobridge,2014-01-03 14:48:00,
2014-01-03 09:54:00,4.1,1.6,29.66,WSW,257,0.0,0.0,89,0.00,,,0.00,meteobridge,2014-01-03 14:54:00,
2014-01-03 09:59:00,4.6,2.1,29.66,WSW,255,0.0,0.0,89,0.00,,,0.00,meteobridge,2014-01-03 14:59:00,
2014-01-03 10:04:00,5.2,2.7,29.66,WSW,249,0.0,0.9,89,0.00,,,0.00,meteobridge,2014-01-03 15:04:00,
2014-01-03 10:10:00,5.9,3.4,29.67,WSW,248,0.0,0.0,89,0.00,,,0.00,meteobridge,2014-01-03 15:10:00,
2014-01-03 10:15:00,6.3,3.6,29.67,WSW,248,0.0,0.9,88,0.00,,,0.00,meteobridge,2014-01-03 15:15:00,
2014-01-03 10:20:00,6.4,3.7,29.67,SW,231,2.0,2.9,88,0.00,,,0.00,meteobridge,2014-01-03 15:20:00,
2014-01-03 10:25:00,6.8,3.9,29.67,SW,218,0.9,0.9,88,0.00,,,0.00,meteobridge,2014-01-03 15:25:00,
2014-01-03 10:30:00,7.2,4.1,29.67,SW,227,0.0,0.9,87,0.00,,,0.00,meteobridge,2014-01-03 15:30:00,
2014-01-03 10:35:00,7.5,4.5,29.67,SW,217,0.0,0.9,87,0.00,,,0.00,meteobridge,2014-01-03 15:35:00,
2014-01-03 10:40:00,8.2,5.2,29.67,SW,221,0.0,0.0,87,0.00,,,0.00,meteobridge,2014-01-03 15:40:00,
2014-01-03 10:45:00,8.8,5.7,29.67,East,98,2.0,2.9,87,0.00,,,0.00,meteobridge,2014-01-03 15:45:00,
2014-01-03 10:50:00,9.1,5.5,29.67,East,93,2.0,2.0,85,0.00,,,0.00,meteobridge,2014-01-03 15:50:00,
2014-01-03 10:55:00,9.7,5.9,29.67,East,84,0.9,2.0,84,0.00,,,0.00,meteobridge,2014-01-03 15:55:00,
2014-01-03 11:00:00,10.2,6.1,29.67,ESE,103,0.9,2.9,83,0.00,,,0.00,meteobridge,2014-01-03 16:00:00,
2014-01-03 11:05:00,10.6,5.0,29.67,East,97,0.0,2.0,78,0.00,,,0.00,meteobridge,2014-01-03 16:05:00,
2014-01-03 11:11:00,11.1,5.4,29.66,ESE,106,0.9,2.9,77,0.00,,,0.00,meteobridge,2014-01-03 16:11:00,
2014-01-03 11:16:00,11.7,5.5,29.66,SSW,204,0.0,0.9,76,0.00,,,0.00,meteobridge,2014-01-03 16:16:00,
2014-01-03 11:21:00,12.4,5.4,29.65,ESE,110,0.9,2.0,73,0.00,,,0.00,meteobridge,2014-01-03 16:21:00,
2014-01-03 11:26:00,12.6,5.5,29.65,East,84,2.0,2.0,73,0.00,,,0.00,meteobridge,2014-01-03 16:26:00,
2014-01-03 11:31:00,12.9,5.4,29.65,ESE,121,0.0,2.9,71,0.00,,,0.00,meteobridge,2014-01-03 16:31:00,
2014-01-03 11:36:00,13.5,6.1,29.65,ENE,63,0.0,2.0,72,0.00,,,0.00,meteobridge,2014-01-03 16:36:00,
2014-01-03 11:42:00,13.8,6.1,29.64,SSE,150,0.0,4.0,71,0.00,,,0.00,meteobridge,2014-01-03 16:42:00,
2014-01-03 11:47:00,14.0,5.4,29.64,ENE,75,0.9,2.0,68,0.00,,,0.00,meteobridge,2014-01-03 16:47:00,
2014-01-03 11:52:00,13.8,4.8,29.64,ESE,108,0.0,2.9,67,0.00,,,0.00,meteobridge,2014-01-03 16:52:00,
2014-01-03 11:57:00,14.2,5.2,29.64,East,101,4.0,4.9,67,0.00,,,0.00,meteobridge,2014-01-03 16:57:00,
2014-01-03 12:02:00,14.4,5.0,29.64,East,97,2.0,2.9,66,0.00,,,0.00,meteobridge,2014-01-03 17:02:00,
2014-01-03 12:07:00,14.5,5.0,29.63,SSE,155,0.9,2.0,65,0.00,,,0.00,meteobridge,2014-01-03 17:07:00,
2014-01-03 12:12:00,15.1,5.4,29.63,East,98,0.9,2.0,65,0.00,,,0.00,meteobridge,2014-01-03 17:12:00,
2014-01-03 12:17:00,15.3,5.4,29.62,SSE,159,0.0,2.9,64,0.00,,,0.00,meteobridge,2014-01-03 17:17:00,
2014-01-03 12:22:00,15.1,5.2,29.62,ESE,102,0.0,2.0,64,0.00,,,0.00,meteobridge,2014-01-03 17:22:00,
2014-01-03 12:27:00,15.3,5.4,29.62,East,90,2.0,2.9,64,0.00,,,0.00,meteobridge,2014-01-03 17:27:00,
2014-01-03 12:32:00,15.1,4.8,29.62,ESE,115,0.9,2.9,63,0.00,,,0.00,meteobridge,2014-01-03 17:32:00,
2014-01-03 12:37:00,15.6,5.4,29.61,SE,128,0.0,2.9,63,0.00,,,0.00,meteobridge,2014-01-03 17:37:00,
2014-01-03 12:43:00,16.0,5.5,29.61,SE,127,0.9,2.9,63,0.00,,,0.00,meteobridge,2014-01-03 17:43:00,
2014-01-03 12:48:00,16.2,5.4,29.61,ESE,102,0.0,4.0,62,0.00,,,0.00,meteobridge,2014-01-03 17:48:00,
2014-01-03 12:53:00,16.2,5.4,29.61,East,94,2.0,4.0,62,0.00,,,0.00,meteobridge,2014-01-03 17:53:00,
2014-01-03 12:58:00,16.2,5.4,29.61,SE,127,0.9,2.0,62,0.00,,,0.00,meteobridge,2014-01-03 17:58:00,
2014-01-03 13:03:00,16.7,5.5,29.60,East,98,2.9,2.9,61,0.00,,,0.00,meteobridge,2014-01-03 18:03:00,
2014-01-03 13:08:00,17.1,5.9,29.61,SW,219,0.9,2.0,61,0.00,,,0.00,meteobridge,2014-01-03 18:08:00,
2014-01-03 13:13:00,17.4,5.5,29.61,East,101,0.9,2.0,59,0.00,,,0.00,meteobridge,2014-01-03 18:13:00,
2014-01-03 13:18:00,17.4,5.5,29.60,SSE,150,0.9,4.9,59,0.00,,,0.00,meteobridge,2014-01-03 18:18:00,
2014-01-03 13:23:00,17.6,6.1,29.60,ESE,105,0.9,2.9,60,0.00,,,0.00,meteobridge,2014-01-03 18:23:00,
2014-01-03 13:28:00,17.2,5.7,29.59,East,81,0.9,2.9,60,0.00,,,0.00,meteobridge,2014-01-03 18:28:00,
2014-01-03 13:33:00,17.4,5.9,29.59,East,91,2.0,2.9,60,0.00,,,0.00,meteobridge,2014-01-03 18:33:00,
2014-01-03 13:38:00,17.4,5.5,29.59,SSW,212,0.0,4.0,59,0.00,,,0.00,meteobridge,2014-01-03 18:38:00,
2014-01-03 13:43:00,17.8,6.3,29.59,East,101,2.0,2.9,60,0.00,,,0.00,meteobridge,2014-01-03 18:43:00,
2014-01-03 13:48:00,18.1,6.6,29.59,ESE,120,0.9,2.0,60,0.00,,,0.00,meteobridge,2014-01-03 18:48:00,
2014-01-03 13:53:00,18.1,6.6,29.58,ENE,76,2.9,2.9,60,0.00,,,0.00,meteobridge,2014-01-03 18:53:00,
2014-01-03 13:59:00,18.3,6.8,29.58,ESE,104,2.9,2.9,60,0.00,,,0.00,meteobridge,2014-01-03 18:59:00,
2014-01-03 14:04:00,18.3,6.8,29.57,East,87,2.9,4.0,60,0.00,,,0.00,meteobridge,2014-01-03 19:04:00,
2014-01-03 14:09:00,18.1,7.0,29.57,East,96,2.0,2.0,61,0.00,,,0.00,meteobridge,2014-01-03 19:09:00,
2014-01-03 14:14:00,18.0,6.8,29.57,ESE,122,0.0,4.0,61,0.00,,,0.00,meteobridge,2014-01-03 19:14:00,
2014-01-03 14:19:00,17.8,6.3,29.57,ESE,102,2.0,4.0,60,0.00,,,0.00,meteobridge,2014-01-03 19:19:00,
2014-01-03 14:24:00,17.4,6.6,29.56,SSE,165,2.0,4.0,62,0.00,,,0.00,meteobridge,2014-01-03 19:24:00,
2014-01-03 14:29:00,17.2,6.4,29.57,ESE,102,2.9,4.9,62,0.00,,,0.00,meteobridge,2014-01-03 19:29:00,
2014-01-03 14:34:00,17.2,6.1,29.56,East,101,2.0,4.0,61,0.00,,,0.00,meteobridge,2014-01-03 19:34:00,
2014-01-03 14:39:00,17.1,6.3,29.55,NE,47,2.0,4.0,62,0.00,,,0.00,meteobridge,2014-01-03 19:39:00,
2014-01-03 14:44:00,17.2,6.1,29.54,East,101,2.9,4.9,61,0.00,,,0.00,meteobridge,2014-01-03 19:44:00,
2014-01-03 14:49:00,17.1,6.3,29.55,East,99,0.9,4.9,62,0.00,,,0.00,meteobridge,2014-01-03 19:49:00,
2014-01-03 14:54:00,17.4,6.6,29.54,East,97,0.9,2.9,62,0.00,,,0.00,meteobridge,2014-01-03 19:54:00,
2014-01-03 14:59:00,17.2,6.1,29.55,ESE,104,2.0,2.9,61,0.00,,,0.00,meteobridge,2014-01-03 19:59:00,
2014-01-03 15:05:00,17.1,5.5,29.56,East,94,2.9,2.9,60,0.00,,,0.00,meteobridge,2014-01-03 20:05:00,
2014-01-03 15:10:00,17.1,5.9,29.56,East,101,0.9,4.0,61,0.00,,,0.00,meteobridge,2014-01-03 20:10:00,
2014-01-03 15:15:00,17.1,5.2,29.56,East,94,0.9,2.9,59,0.00,,,0.00,meteobridge,2014-01-03 20:15:00,
2014-01-03 15:20:00,16.7,5.2,29.55,East,94,2.0,6.0,60,0.00,,,0.00,meteobridge,2014-01-03 20:20:00,
2014-01-03 15:25:00,16.5,5.4,29.55,SSE,159,0.0,2.9,61,0.00,,,0.00,meteobridge,2014-01-03 20:25:00,
2014-01-03 15:30:00,16.7,5.2,29.55,East,86,0.9,2.9,60,0.00,,,0.00,meteobridge,2014-01-03 20:30:00,
2014-01-03 15:35:00,16.7,5.2,29.55,ENE,63,2.0,4.0,60,0.00,,,0.00,meteobridge,2014-01-03 20:35:00,
2014-01-03 15:40:00,16.7,5.5,29.55,East,100,2.0,6.0,61,0.00,,,0.00,meteobridge,2014-01-03 20:40:00,
2014-01-03 15:45:00,16.9,5.7,29.54,ESE,110,2.9,4.0,61,0.00,,,0.00,meteobridge,2014-01-03 20:45:00,
2014-01-03 15:50:00,16.9,5.7,29.54,East,96,2.0,2.9,61,0.00,,,0.00,meteobridge,2014-01-03 20:50:00,
2014-01-03 15:55:00,16.7,5.9,29.54,East,79,0.9,4.0,62,0.00,,,0.00,meteobridge,2014-01-03 20:55:00,
2014-01-03 16:01:00,16.3,5.9,29.54,East,81,2.9,6.0,63,0.00,,,0.00,meteobridge,2014-01-03 21:01:00,
2014-01-03 16:06:00,16.2,5.7,29.54,NE,46,6.0,6.0,63,0.00,,,0.00,meteobridge,2014-01-03 21:06:00,
2014-01-03 16:11:00,16.0,5.9,29.53,ESE,115,0.9,4.0,64,0.00,,,0.00,meteobridge,2014-01-03 21:11:00,
2014-01-03 16:16:00,16.2,6.4,29.53,ESE,110,0.0,2.0,65,0.00,,,0.00,meteobridge,2014-01-03 21:16:00,
2014-01-03 16:21:00,16.2,6.1,29.53,ENE,73,4.0,6.9,64,0.00,,,0.00,meteobridge,2014-01-03 21:21:00,
2014-01-03 16:26:00,16.0,6.3,29.53,ENE,75,2.9,4.9,65,0.00,,,0.00,meteobridge,2014-01-03 21:26:00,
2014-01-03 16:31:00,16.2,6.8,29.53,ESE,104,2.9,2.9,66,0.00,,,0.00,meteobridge,2014-01-03 21:31:00,
2014-01-03 16:36:00,16.0,6.3,29.53,East,82,6.0,6.9,65,0.00,,,0.00,meteobridge,2014-01-03 21:36:00,
2014-01-03 16:41:00,15.8,6.4,29.52,East,94,0.9,4.0,66,0.00,,,0.00,meteobridge,2014-01-03 21:41:00,
2014-01-03 16:46:00,15.8,6.8,29.52,ENE,69,4.0,4.0,67,0.00,,,0.00,meteobridge,2014-01-03 21:46:00,
2014-01-03 16:51:00,15.6,6.6,29.52,ENE,75,2.0,4.0,67,0.00,,,0.00,meteobridge,2014-01-03 21:51:00,
2014-01-03 16:56:00,15.6,6.6,29.52,ENE,73,2.0,2.9,67,0.00,,,0.00,meteobridge,2014-01-03 21:56:00,
2014-01-03 17:01:00,15.6,7.0,29.52,East,101,0.9,2.0,68,0.00,,,0.00,meteobridge,2014-01-03 22:01:00,
2014-01-03 17:06:00,15.6,7.0,29.51,SE,128,2.9,6.9,68,0.00,,,0.00,meteobridge,2014-01-03 22:06:00,
2014-01-03 17:11:00,15.4,6.8,29.51,ESE,107,0.9,2.9,68,0.00,,,0.00,meteobridge,2014-01-03 22:11:00,
2014-01-03 17:16:00,15.4,7.2,29.51,ESE,105,0.9,2.9,69,0.00,,,0.00,meteobridge,2014-01-03 22:16:00,
2014-01-03 17:21:00,15.3,7.0,29.51,ESE,104,2.0,2.9,69,0.00,,,0.00,meteobridge,2014-01-03 22:21:00,
2014-01-03 17:27:00,15.1,7.0,29.51,ENE,77,2.0,2.0,70,0.00,,,0.00,meteobridge,2014-01-03 22:27:00,
2014-01-03 17:32:00,14.9,7.0,29.51,East,93,2.0,2.9,70,0.00,,,0.00,meteobridge,2014-01-03 22:32:00,
2014-01-03 17:37:00,14.7,6.8,29.51,East,94,0.9,2.9,70,0.00,,,0.00,meteobridge,2014-01-03 22:37:00,
2014-01-03 17:42:00,14.7,6.8,29.50,ESE,117,2.0,2.9,70,0.00,,,0.00,meteobridge,2014-01-03 22:42:00,
2014-01-03 17:47:00,14.7,7.0,29.50,East,98,2.0,4.0,71,0.00,,,0.00,meteobridge,2014-01-03 22:47:00,
2014-01-03 17:52:00,14.5,6.8,29.50,East,85,0.0,2.9,71,0.00,,,0.00,meteobridge,2014-01-03 22:52:00,
2014-01-03 17:57:00,14.4,6.6,29.49,East,91,0.9,2.9,71,0.00,,,0.00,meteobridge,2014-01-03 22:57:00,
2014-01-03 18:02:00,14.4,6.6,29.49,East,89,2.0,2.0,71,0.00,,,0.00,meteobridge,2014-01-03 23:02:00,
2014-01-03 18:07:00,14.2,6.4,29.49,East,100,2.9,2.9,71,0.00,,,0.00,meteobridge,2014-01-03 23:07:00,
2014-01-03 18:12:00,14.2,6.8,29.49,ESE,105,0.9,2.9,72,0.00,,,0.00,meteobridge,2014-01-03 23:12:00,
2014-01-03 18:18:00,14.2,6.8,29.49,ESE,118,2.9,4.0,72,0.00,,,0.00,meteobridge,2014-01-03 23:18:00,
2014-01-03 18:23:00,14.2,6.8,29.49,SE,138,2.0,2.0,72,0.00,,,0.00,meteobridge,2014-01-03 23:23:00,
2014-01-03 18:29:00,14.0,6.6,29.49,East,101,0.9,4.0,72,0.00,,,0.00,meteobridge,2014-01-03 23:29:00,
2014-01-03 18:34:00,14.2,6.8,29.49,ESE,110,2.0,2.9,72,0.00,,,0.00,meteobridge,2014-01-03 23:34:00,
2014-01-03 18:39:00,14.4,7.0,29.49,East,98,0.9,4.0,72,0.00,,,0.00,meteobridge,2014-01-03 23:39:00,
2014-01-03 18:44:00,14.4,7.0,29.49,ESE,115,2.0,4.9,72,0.00,,,0.00,meteobridge,2014-01-03 23:44:00,
2014-01-03 18:49:00,14.4,7.0,29.48,South,184,0.9,2.0,72,0.00,,,0.00,meteobridge,2014-01-03 23:49:00,
2014-01-03 18:55:00,14.4,7.0,29.48,East,88,0.9,2.0,72,0.00,,,0.00,meteobridge,2014-01-03 23:55:00,
2014-01-03 19:00:00,14.4,6.6,29.48,ESE,105,2.9,2.9,71,0.00,,,0.00,meteobridge,2014-01-04 00:00:00,
2014-01-03 19:05:00,14.4,6.6,29.48,West,269,0.0,4.0,71,0.00,,,0.00,meteobridge,2014-01-04 00:05:00,
2014-01-03 19:10:00,14.2,6.8,29.48,East,94,0.9,2.9,72,0.00,,,0.00,meteobridge,2014-01-04 00:10:00,
2014-01-03 19:15:00,13.8,6.4,29.48,NW,305,0.9,2.9,72,0.00,,,0.00,meteobridge,2014-01-04 00:15:00,
2014-01-03 19:18:00,13.8,6.4,29.48,ESE,104,2.0,2.0,72,0.00,,,0.00,meteobridge,2014-01-04 00:18:00,
2014-01-03 19:23:00,13.6,6.3,29.48,SE,134,2.9,2.9,72,0.00,,,0.00,meteobridge,2014-01-04 00:23:00,
2014-01-03 19:28:00,13.5,6.4,29.47,East,100,0.9,2.0,73,0.00,,,0.00,meteobridge,2014-01-04 00:28:00,
2014-01-03 19:33:00,13.3,6.3,29.47,East,92,2.0,2.9,73,0.00,,,0.00,meteobridge,2014-01-04 00:33:00,
2014-01-03 19:38:00,13.3,6.3,29.47,East,101,2.9,4.0,73,0.00,,,0.00,meteobridge,2014-01-04 00:38:00,
2014-01-03 19:43:00,13.1,6.1,29.46,ESE,107,0.9,2.0,73,0.00,,,0.00,meteobridge,2014-01-04 00:43:00,
2014-01-03 19:48:00,12.9,5.9,29.46,East,92,0.9,2.9,73,0.00,,,0.00,meteobridge,2014-01-04 00:48:00,
2014-01-03 19:53:00,12.7,6.1,29.46,SE,128,0.0,2.0,74,0.00,,,0.00,meteobridge,2014-01-04 00:53:00,
2014-01-03 19:58:00,12.7,6.1,29.46,SE,125,2.9,2.9,74,0.00,,,0.00,meteobridge,2014-01-04 00:58:00,
2014-01-03 20:03:00,12.7,6.3,29.46,East,99,4.0,4.0,75,0.00,,,0.00,meteobridge,2014-01-04 01:03:00,
2014-01-03 20:08:00,12.9,6.4,29.45,ESE,105,2.0,4.0,75,0.00,,,0.00,meteobridge,2014-01-04 01:08:00,
2014-01-03 20:14:00,12.9,6.4,29.45,ESE,118,0.9,2.0,75,0.00,,,0.00,meteobridge,2014-01-04 01:14:00,
2014-01-03 20:20:00,12.9,6.4,29.45,SE,128,2.0,2.0,75,0.00,,,0.00,meteobridge,2014-01-04 01:20:00,
2014-01-03 20:25:00,12.9,6.8,29.45,SE,125,2.9,2.9,76,0.00,,,0.00,meteobridge,2014-01-04 01:25:00,
2014-01-03 20:30:00,12.9,6.8,29.45,SE,132,2.0,4.0,76,0.00,,,0.00,meteobridge,2014-01-04 01:30:00,
2014-01-03 20:35:00,12.9,6.8,29.44,East,81,2.9,2.9,76,0.00,,,0.00,meteobridge,2014-01-04 01:35:00,
2014-01-03 20:40:00,12.9,6.8,29.44,SE,135,0.0,2.9,76,0.00,,,0.00,meteobridge,2014-01-04 01:40:00,
2014-01-03 20:45:00,12.7,6.6,29.44,ESE,104,0.0,2.0,76,0.00,,,0.00,meteobridge,2014-01-04 01:45:00,
2014-01-03 20:50:00,12.7,6.6,29.44,SE,133,0.0,0.9,76,0.00,,,0.00,meteobridge,2014-01-04 01:50:00,
2014-01-03 20:55:00,12.7,6.6,29.44,ESE,111,0.0,0.9,76,0.00,,,0.00,meteobridge,2014-01-04 01:55:00,
2014-01-03 21:00:00,12.7,6.6,29.43,East,97,0.9,2.9,76,0.00,,,0.00,meteobridge,2014-01-04 02:00:00,
2014-01-03 21:05:00,12.7,6.6,29.43,SE,138,0.9,2.9,76,0.00,,,0.00,meteobridge,2014-01-04 02:05:00,
2014-01-03 21:10:00,12.7,7.0,29.42,East,93,2.0,2.0,77,0.00,,,0.00,meteobridge,2014-01-04 02:10:00,
2014-01-03 21:15:00,12.7,7.0,29.41,ENE,72,0.0,2.9,77,0.00,,,0.00,meteobridge,2014-01-04 02:15:00,
2014-01-03 21:21:00,12.9,6.8,29.41,East,83,2.9,4.0,76,0.00,,,0.00,meteobridge,2014-01-04 02:21:00,
2014-01-03 21:26:00,12.9,7.2,29.41,ESE,121,0.9,4.9,77,0.00,,,0.00,meteobridge,2014-01-04 02:26:00,
2014-01-03 21:31:00,12.9,6.8,29.41,SE,138,0.0,2.0,76,0.00,,,0.00,meteobridge,2014-01-04 02:31:00,
2014-01-03 21:36:00,12.9,7.2,29.40,ESE,105,0.9,6.0,77,0.00,,,0.00,meteobridge,2014-01-04 02:36:00,
2014-01-03 21:41:00,12.9,6.8,29.40,ESE,105,2.0,2.9,76,0.00,,,0.00,meteobridge,2014-01-04 02:41:00,
2014-01-03 21:46:00,13.1,7.0,29.40,ESE,117,0.0,2.9,76,0.00,,,0.00,meteobridge,2014-01-04 02:46:00,
2014-01-03 21:51:00,13.3,7.2,29.39,ESE,105,2.0,2.9,76,0.00,,,0.00,meteobridge,2014-01-04 02:51:00,
2014-01-03 21:56:00,13.3,7.2,29.39,East,92,2.9,4.9,76,0.00,,,0.00,meteobridge,2014-01-04 02:56:00,
2014-01-03 21:57:00,13.3,7.2,29.39,ESE,113,0.0,4.9,76,0.00,,,0.00,meteobridge,2014-01-04 02:57:00,
2014-01-03 22:02:00,13.3,7.2,29.39,SE,143,0.9,2.9,76,0.00,,,0.00,meteobridge,2014-01-04 03:02:00,
2014-01-03 22:07:00,13.3,7.2,29.39,ESE,116,2.9,2.9,76,0.00,,,0.00,meteobridge,2014-01-04 03:07:00,
2014-01-03 22:12:00,13.3,7.2,29.38,ESE,104,4.0,4.0,76,0.00,,,0.00,meteobridge,2014-01-04 03:12:00,
2014-01-03 22:17:00,13.3,7.2,29.38,SSE,156,0.9,4.0,76,0.00,,,0.00,meteobridge,2014-01-04 03:17:00,
2014-01-03 22:22:00,13.3,7.2,29.37,ESE,113,2.0,2.0,76,0.00,,,0.00,meteobridge,2014-01-04 03:22:00,
2014-01-03 22:27:00,13.3,7.3,29.37,ESE,106,2.0,4.0,77,0.00,,,0.00,meteobridge,2014-01-04 03:27:00,
2014-01-03 22:33:00,13.3,7.3,29.37,ESE,115,2.9,2.9,77,0.00,,,0.00,meteobridge,2014-01-04 03:33:00,
2014-01-03 22:38:00,13.3,7.3,29.37,SSE,160,0.9,2.9,77,0.00,,,0.00,meteobridge,2014-01-04 03:38:00,
2014-01-03 22:43:00,13.3,7.3,29.37,SE,134,0.9,2.9,77,0.00,,,0.00,meteobridge,2014-01-04 03:43:00,
2014-01-03 22:48:00,13.5,7.5,29.37,ESE,120,2.9,4.0,77,0.00,,,0.00,meteobridge,2014-01-04 03:48:00,
2014-01-03 22:53:00,13.6,7.7,29.36,SE,127,0.9,4.0,77,0.00,,,0.00,meteobridge,2014-01-04 03:53:00,
2014-01-03 22:58:00,13.6,7.7,29.36,SSE,158,2.0,2.0,77,0.00,,,0.00,meteobridge,2014-01-04 03:58:00,
2014-01-03 23:03:00,13.6,7.7,29.36,East,97,0.0,2.0,77,0.00,,,0.00,meteobridge,2014-01-04 04:03:00,
2014-01-03 23:08:00,13.6,7.7,29.36,ESE,112,0.0,2.0,77,0.00,,,0.00,meteobridge,2014-01-04 04:08:00,
2014-01-03 23:13:00,13.6,7.7,29.36,East,98,0.9,4.0,77,0.00,,,0.00,meteobridge,2014-01-04 04:13:00,
2014-01-03 23:18:00,13.6,7.7,29.36,ESE,108,2.9,2.9,77,0.00,,,0.00,meteobridge,2014-01-04 04:18:00,
2014-01-03 23:23:00,13.8,8.2,29.36,East,97,0.9,0.9,78,0.00,,,0.00,meteobridge,2014-01-04 04:23:00,
2014-01-03 23:28:00,13.8,8.2,29.36,East,89,0.9,2.9,78,0.00,,,0.00,meteobridge,2014-01-04 04:28:00,
2014-01-03 23:33:00,14.0,8.4,29.35,ESE,122,0.9,2.0,78,0.00,,,0.00,meteobridge,2014-01-04 04:33:00,
2014-01-03 23:39:00,14.2,8.2,29.35,SE,136,0.9,2.0,77,0.00,,,0.00,meteobridge,2014-01-04 04:39:00,
2014-01-03 23:44:00,14.2,8.6,29.35,ESE,113,0.9,4.0,78,0.00,,,0.00,meteobridge,2014-01-04 04:44:00,
2014-01-03 23:49:00,14.4,8.4,29.35,ESE,122,2.0,2.9,77,0.00,,,0.00,meteobridge,2014-01-04 04:49:00,
2014-01-03 23:54:00,14.4,8.4,29.35,SSE,148,2.0,2.9,77,0.00,,,0.00,meteobridge,2014-01-04 04:54:00,
2014-01-03 23:59:00,14.4,8.4,29.35,SSE,163,0.9,2.0,77,0.00,,,0.00,meteobridge,2014-01-04 04:59:00,